Time,TemperatureF,DewpointF,PressureIn,WindDirection,WindDirectionDegrees,WindSpeedMPH,WindSpeedGustMPH,Humidity,HourlyPrecipIn,Conditions,Clouds,dailyrainin,SoftwareType,DateUTC
2013-01-14 00:01:00,27.0,0.0,30.20,North,9,5.0,15.0,31,0.00,,,0.00,,2013-01-14 08:01:00,
2013-01-14 00:11:00,27.0,0.0,30.20,North,9,5.0,15.0,31,0.00,,,0.00,,2013-01-14 08:11:00,
2013-01-14 00:22:00,28.0,1.0,30.20,North,5,4.0,5.0,30,0.00,,,0.00,,2013-01-14 08:22:00,
2013-01-14 00:32:00,27.0,0.0,30.21,ENE,60,1.0,4.0,30,0.00,,,0.00,,2013-01-14 08:32:00,
2013-01-14 00:42:00,27.0,0.0,30.21,ENE,60,1.0,4.0,30,0.00,,,0.00,,2013-01-14 08:42:00,
2013-01-14 00:53:00,25.0,-1.0,30.21,ENE,68,1.0,3.0,32,0.00,,,0.00,,2013-01-14 08:53:00,
2013-01-14 01:02:00,24.0,-2.0,30.22,SSE,158,3.0,5.0,32,0.00,,,0.00,,2013-01-14 09:02:00,
2013-01-14 01:11:00,24.0,-2.0,30.22,SSE,158,3.0,5.0,32,0.00,,,0.00,,2013-01-14 09:11:00,
2013-01-14 01:22:00,24.0,0.0,30.22,NE,49,3.0,8.0,34,0.00,,,0.00,,2013-01-14 09:22:00,
2013-01-14 01:33:00,25.0,0.0,30.22,ENE,75,4.0,6.0,33,0.00,,,0.00,,2013-01-14 09:33:00,
2013-01-14 01:42:00,25.0,0.0,30.22,ENE,75,4.0,6.0,33,0.00,,,0.00,,2013-01-14 09:42:00,
2013-01-14 01:52:00,25.0,-1.0,30.23,SE,142,3.0,4.0,31,0.00,,,0.00,,2013-01-14 09:52:00,
2013-01-14 02:02:00,24.0,-2.0,30.22,SSE,160,3.0,6.0,32,0.00,,,0.00,,2013-01-14 10:02:00,
2013-01-14 02:11:00,24.0,-2.0,30.22,SSE,160,3.0,6.0,32,0.00,,,0.00,,2013-01-14 10:11:00,
2013-01-14 02:22:00,23.0,-1.0,30.23,SSE,168,5.0,8.0,34,0.00,,,0.00,,2013-01-14 10:22:00,
2013-01-14 02:32:00,22.0,-1.0,30.23,SSE,158,7.0,11.0,35,0.00,,,0.00,,2013-01-14 10:32:00,
2013-01-14 02:42:00,22.0,-1.0,30.23,SSE,158,7.0,11.0,35,0.00,,,0.00,,2013-01-14 10:42:00,
2013-01-14 02:52:00,22.0,-1.0,30.24,SSE,165,6.0,9.0,35,0.00,,,0.00,,2013-01-14 10:52:00,
2013-01-14 03:01:00,22.0,-1.0,30.23,SSE,158,1.0,9.0,35,0.00,,,0.00,,2013-01-14 11:01:00,
2013-01-14 03:11:00,22.0,-1.0,30.23,SSE,158,1.0,9.0,35,0.00,,,0.00,,2013-01-14 11:11:00,
2013-01-14 03:22:00,22.0,-2.0,30.24,SSE,159,0.0,5.0,34,0.00,,,0.00,,2013-01-14 11:22:00,
2013-01-14 03:32:00,21.0,-2.0,30.24,SSE,159,0.0,5.0,35,0.00,,,0.00,,2013-01-14 11:32:00,
2013-01-14 03:42:00,21.0,-2.0,30.24,SSE,159,0.0,5.0,35,0.00,,,0.00,,2013-01-14 11:42:00,
2013-01-14 03:53:00,20.0,-2.0,30.23,SSE,164,9.0,12.0,37,0.00,,,0.00,,2013-01-14 11:53:00,
2013-01-14 04:02:00,20.0,-2.0,30.23,SSE,157,11.0,13.0,37,0.00,,,0.00,,2013-01-14 12:02:00,
2013-01-14 04:12:00,20.0,-2.0,30.23,SSE,157,11.0,13.0,37,0.00,,,0.00,,2013-01-14 12:12:00,
2013-01-14 04:22:00,22.0,-1.0,30.23,SSE,161,9.0,12.0,35,0.00,,,0.00,,2013-01-14 12:22:00,
2013-01-14 04:32:00,22.0,-2.0,30.23,SSE,156,8.0,11.0,34,0.00,,,0.00,,2013-01-14 12:32:00,
2013-01-14 04:42:00,22.0,-2.0,30.23,SSE,156,8.0,11.0,34,0.00,,,0.00,,2013-01-14 12:42:00,
2013-01-14 04:53:00,22.0,-2.0,30.24,SSE,152,5.0,7.0,34,0.00,,,0.00,,2013-01-14 12:53:00,
2013-01-14 05:02:00,22.0,-2.0,30.23,South,175,5.0,7.0,34,0.00,,,0.00,,2013-01-14 13:02:00,
2013-01-14 05:12:00,22.0,-2.0,30.23,South,175,5.0,7.0,34,0.00,,,0.00,,2013-01-14 13:12:00,
2013-01-14 05:22:00,22.0,-3.0,30.24,South,171,3.0,5.0,33,0.00,,,0.00,,2013-01-14 13:22:00,
2013-01-14 05:33:00,22.0,-3.0,30.24,South,169,4.0,5.0,33,0.00,,,0.00,,2013-01-14 13:33:00,
2013-01-14 05:42:00,22.0,-3.0,30.24,South,169,4.0,5.0,33,0.00,,,0.00,,2013-01-14 13:42:00,
2013-01-14 05:53:00,21.0,-3.0,30.25,SSE,167,4.0,7.0,34,0.00,,,0.00,,2013-01-14 13:53:00,
2013-01-14 06:02:00,21.0,-2.0,30.26,SSE,167,3.0,5.0,35,0.00,,,0.00,,2013-01-14 14:02:00,
2013-01-14 06:12:00,21.0,-2.0,30.26,SSE,167,3.0,5.0,35,0.00,,,0.00,,2013-01-14 14:12:00,
2013-01-14 06:22:00,20.0,-4.0,30.27,South,171,4.0,5.0,34,0.00,,,0.00,,2013-01-14 14:22:00,
2013-01-14 06:32:00,20.0,-3.0,30.27,South,190,4.0,5.0,35,0.00,,,0.00,,2013-01-14 14:32:00,
2013-01-14 06:42:00,20.0,-3.0,30.27,South,190,4.0,5.0,35,0.00,,,0.00,,2013-01-14 14:42:00,
2013-01-14 06:53:00,21.0,-2.0,30.28,SSW,202,3.0,6.0,35,0.00,,,0.00,,2013-01-14 14:53:00,
2013-01-14 07:02:00,21.0,-3.0,30.29,SSW,202,4.0,5.0,34,0.00,,,0.00,,2013-01-14 15:02:00,
2013-01-14 07:12:00,21.0,-3.0,30.29,SSW,202,4.0,5.0,34,0.00,,,0.00,,2013-01-14 15:12:00,
2013-01-14 07:23:00,20.0,-3.0,30.31,SW,219,4.0,6.0,35,0.00,,,0.00,,2013-01-14 15:23:00,
2013-01-14 07:33:00,19.0,-4.0,30.31,SW,221,3.0,6.0,35,0.00,,,0.00,,2013-01-14 15:33:00,
2013-01-14 07:42:00,19.0,-4.0,30.31,SW,221,3.0,6.0,35,0.00,,,0.00,,2013-01-14 15:42:00,
2013-01-14 07:53:00,19.0,-4.0,30.33,SW,221,0.0,2.0,36,0.00,,,0.00,,2013-01-14 15:53:00,
2013-01-14 08:02:00,18.0,-4.0,30.33,SW,221,0.0,2.0,37,0.00,,,0.00,,2013-01-14 16:02:00,
2013-01-14 08:12:00,18.0,-4.0,30.33,SW,221,0.0,2.0,37,0.00,,,0.00,,2013-01-14 16:12:00,
2013-01-14 08:22:00,19.0,-3.0,30.33,SW,221,0.0,0.0,37,0.00,,,0.00,,2013-01-14 16:22:00,
2013-01-14 08:32:00,21.0,-2.0,30.34,SW,221,0.0,0.0,36,0.00,,,0.00,,2013-01-14 16:32:00,
2013-01-14 08:42:00,21.0,-2.0,30.34,SW,221,0.0,0.0,36,0.00,,,0.00,,2013-01-14 16:42:00,
2013-01-14 08:53:00,26.0,0.0,30.34,SW,221,2.0,3.0,32,0.00,,,0.00,,2013-01-14 16:53:00,
2013-01-14 09:02:00,27.0,0.0,30.35,SW,227,3.0,6.0,30,0.00,,,0.00,,2013-01-14 17:02:00,
2013-01-14 09:11:00,27.0,0.0,30.35,SW,227,3.0,6.0,30,0.00,,,0.00,,2013-01-14 17:11:00,
2013-01-14 09:22:00,28.0,0.0,30.35,SW,228,3.0,5.0,29,0.00,,,0.00,,2013-01-14 17:22:00,
2013-01-14 09:33:00,29.0,0.0,30.35,SW,228,1.0,3.0,28,0.00,,,0.00,,2013-01-14 17:33:00,
2013-01-14 09:42:00,29.0,0.0,30.35,SW,228,1.0,3.0,28,0.00,,,0.00,,2013-01-14 17:42:00,
2013-01-14 09:53:00,31.0,1.0,30.35,SW,227,1.0,3.0,27,0.00,,,0.00,,2013-01-14 17:53:00,
2013-01-14 10:02:00,33.0,2.0,30.35,WSW,237,1.0,5.0,26,0.00,,,0.00,,2013-01-14 18:02:00,
2013-01-14 10:12:00,33.0,2.0,30.35,WSW,237,1.0,5.0,26,0.00,,,0.00,,2013-01-14 18:12:00,
2013-01-14 10:22:00,34.0,2.0,30.34,WSW,237,1.0,2.0,25,0.00,,,0.00,,2013-01-14 18:22:00,
2013-01-14 10:33:00,34.0,1.0,30.34,WSW,240,0.0,1.0,24,0.00,,,0.00,,2013-01-14 18:33:00,
2013-01-14 10:42:00,34.0,1.0,30.34,WSW,240,0.0,1.0,24,0.00,,,0.00,,2013-01-14 18:42:00,
2013-01-14 10:53:00,34.0,1.0,30.34,WSW,238,0.0,4.0,24,0.00,,,0.00,,2013-01-14 18:53:00,
2013-01-14 11:02:00,35.0,2.0,30.33,WSW,238,0.0,3.0,24,0.00,,,0.00,,2013-01-14 19:02:00,
2013-01-14 11:12:00,35.0,2.0,30.33,WSW,238,0.0,3.0,24,0.00,,,0.00,,2013-01-14 19:12:00,
2013-01-14 11:22:00,37.0,2.0,30.32,WSW,238,0.0,2.0,22,0.00,,,0.00,,2013-01-14 19:22:00,
2013-01-14 11:32:00,37.0,2.0,30.32,SSW,207,1.0,4.0,22,0.00,,,0.00,,2013-01-14 19:32:00,
2013-01-14 11:42:00,37.0,2.0,30.32,SSW,207,1.0,4.0,22,0.00,,,0.00,,2013-01-14 19:42:00,
2013-01-14 11:53:00,38.0,2.0,30.32,SW,214,0.0,4.0,21,0.00,,,0.00,,2013-01-14 19:53:00,
2013-01-14 12:02:00,39.0,2.0,30.32,West,262,2.0,5.0,21,0.00,,,0.00,,2013-01-14 20:02:00,
2013-01-14 12:12:00,39.0,2.0,30.32,West,262,2.0,5.0,21,0.00,,,0.00,,2013-01-14 20:12:00,
2013-01-14 12:22:00,39.0,1.0,30.30,SW,232,2.0,5.0,20,0.00,,,0.00,,2013-01-14 20:22:00,
2013-01-14 12:32:00,39.0,1.0,30.29,North,351,3.0,6.0,20,0.00,,,0.00,,2013-01-14 20:32:00,
2013-01-14 12:42:00,39.0,1.0,30.29,North,351,3.0,6.0,20,0.00,,,0.00,,2013-01-14 20:42:00,
2013-01-14 12:53:00,39.0,0.0,30.29,East,86,0.0,3.0,19,0.00,,,0.00,,2013-01-14 20:53:00,
2013-01-14 13:02:00,40.0,1.0,30.28,East,88,2.0,5.0,19,0.00,,,0.00,,2013-01-14 21:02:00,
2013-01-14 13:12:00,40.0,1.0,30.28,East,88,2.0,5.0,19,0.00,,,0.00,,2013-01-14 21:12:00,
2013-01-14 13:22:00,41.0,1.0,30.28,ESE,120,4.0,5.0,18,0.00,,,0.00,,2013-01-14 21:22:00,
2013-01-14 13:32:00,41.0,1.0,30.27,SSE,163,2.0,9.0,18,0.00,,,0.00,,2013-01-14 21:32:00,
2013-01-14 13:42:00,41.0,1.0,30.27,SSE,163,2.0,9.0,18,0.00,,,0.00,,2013-01-14 21:42:00,
2013-01-14 13:53:00,42.0,0.0,30.27,ESE,122,4.0,9.0,17,0.00,,,0.00,,2013-01-14 21:53:00,
2013-01-14 14:02:00,42.0,0.0,30.28,NNE,22,1.0,5.0,17,0.00,,,0.00,,2013-01-14 22:02:00,
2013-01-14 14:12:00,42.0,0.0,30.28,NNE,22,1.0,5.0,17,0.00,,,0.00,,2013-01-14 22:12:00,
2013-01-14 14:22:00,42.0,2.0,30.29,ESE,113,6.0,12.0,18,0.00,,,0.00,,2013-01-14 22:22:00,
2013-01-14 14:32:00,42.0,2.0,30.29,ESE,114,5.0,10.0,18,0.00,,,0.00,,2013-01-14 22:32:00,
2013-01-14 14:52:00,42.0,0.0,30.29,ESE,110,6.0,9.0,17,0.00,,,0.00,,2013-01-14 22:52:00,
2013-01-14 15:02:00,42.0,0.0,30.29,ESE,121,3.0,7.0,17,0.00,,,0.00,,2013-01-14 23:02:00,
2013-01-14 15:22:00,42.0,0.0,30.29,East,88,2.0,6.0,17,0.00,,,0.00,,2013-01-14 23:22:00,
2013-01-14 15:32:00,42.0,0.0,30.30,ENE,75,2.0,5.0,17,0.00,,,0.00,,2013-01-14 23:32:00,
2013-01-14 15:42:00,42.0,0.0,30.30,ENE,75,2.0,5.0,17,0.00,,,0.00,,2013-01-14 23:42:00,
2013-01-14 15:53:00,42.0,0.0,30.29,SE,126,1.0,5.0,17,0.00,,,0.00,,2013-01-14 23:53:00,
2013-01-14 16:02:00,42.0,0.0,30.30,SE,144,4.0,6.0,17,0.00,,,0.00,,2013-01-15 00:02:00,
2013-01-14 16:11:00,42.0,0.0,30.30,SE,144,4.0,6.0,17,0.00,,,0.00,,2013-01-15 00:11:00,
2013-01-14 16:22:00,41.0,0.0,30.30,SE,130,4.0,6.0,17,0.00,,,0.00,,2013-01-15 00:22:00,
2013-01-14 16:32:00,40.0,-1.0,30.30,SE,138,4.0,7.0,17,0.00,,,0.00,,2013-01-15 00:32:00,
2013-01-14 16:42:00,40.0,-1.0,30.30,SE,138,4.0,7.0,17,0.00,,,0.00,,2013-01-15 00:42:00,
2013-01-14 16:52:00,40.0,0.0,30.31,SE,138,6.0,13.0,18,0.00,,,0.00,,2013-01-15 00:52:00,
2013-01-14 17:01:00,39.0,-1.0,30.31,SE,138,5.0,10.0,18,0.00,,,0.00,,2013-01-15 01:01:00,
2013-01-14 17:12:00,39.0,-1.0,30.31,SE,138,5.0,10.0,18,0.00,,,0.00,,2013-01-15 01:12:00,
2013-01-14 17:22:00,39.0,-1.0,30.31,SE,138,5.0,10.0,18,0.00,,,0.00,,2013-01-15 01:22:00,
2013-01-14 17:32:00,39.0,-1.0,30.31,SE,138,5.0,10.0,18,0.00,,,0.00,,2013-01-15 01:32:00,
2013-01-14 19:22:00,32.0,-2.0,30.35,South,186,0.0,5.0,22,0.00,,,0.00,,2013-01-15 03:22:00,
2013-01-14 19:33:00,32.0,-2.0,30.35,South,186,5.0,6.0,22,0.00,,,0.00,,2013-01-15 03:33:00,
2013-01-14 19:42:00,32.0,-2.0,30.35,South,186,5.0,6.0,22,0.00,,,0.00,,2013-01-15 03:42:00,
2013-01-14 19:52:00,32.0,-2.0,30.35,South,186,0.0,5.0,22,0.00,,,0.00,,2013-01-15 03:52:00,
2013-01-14 20:02:00,32.0,-2.0,30.35,South,186,0.0,5.0,22,0.00,,,0.00,,2013-01-15 04:02:00,
2013-01-14 20:11:00,32.0,-2.0,30.35,South,186,0.0,5.0,22,0.00,,,0.00,,2013-01-15 04:11:00,
2013-01-14 20:33:00,28.0,-4.0,30.37,SSW,200,1.0,4.0,24,0.00,,,0.00,,2013-01-15 04:33:00,
2013-01-14 20:42:00,28.0,-4.0,30.37,SSW,200,1.0,4.0,24,0.00,,,0.00,,2013-01-15 04:42:00,
2013-01-14 20:52:00,27.0,-4.0,30.38,SSW,207,1.0,3.0,25,0.00,,,0.00,,2013-01-15 04:52:00,
2013-01-14 21:03:00,27.0,-3.0,30.38,SSW,207,0.0,2.0,26,0.00,,,0.00,,2013-01-15 05:03:00,
2013-01-14 21:12:00,27.0,-4.0,30.38,SSW,207,2.0,3.0,25,0.00,,,0.00,,2013-01-15 05:12:00,
2013-01-14 21:22:00,27.0,-4.0,30.38,SSW,207,2.0,3.0,25,0.00,,,0.00,,2013-01-15 05:22:00,
2013-01-14 21:32:00,27.0,-4.0,30.38,SSW,207,2.0,4.0,25,0.00,,,0.00,,2013-01-15 05:32:00,
2013-01-14 21:42:00,27.0,-4.0,30.38,SSW,207,2.0,4.0,25,0.00,,,0.00,,2013-01-15 05:42:00,
2013-01-14 21:52:00,27.0,-3.0,30.37,SW,214,4.0,6.0,26,0.00,,,0.00,,2013-01-15 05:52:00,
2013-01-14 22:02:00,27.0,-3.0,30.37,SW,214,3.0,5.0,26,0.00,,,0.00,,2013-01-15 06:02:00,
2013-01-14 22:12:00,27.0,-3.0,30.37,SW,214,3.0,5.0,26,0.00,,,0.00,,2013-01-15 06:12:00,
2013-01-14 22:22:00,27.0,-3.0,30.37,SW,218,5.0,6.0,26,0.00,,,0.00,,2013-01-15 06:22:00,
2013-01-14 22:32:00,27.0,-3.0,30.36,SW,228,4.0,6.0,26,0.00,,,0.00,,2013-01-15 06:32:00,
2013-01-14 22:42:00,27.0,-3.0,30.36,SW,228,4.0,6.0,26,0.00,,,0.00,,2013-01-15 06:42:00,
2013-01-14 22:52:00,27.0,-3.0,30.36,SW,230,2.0,6.0,26,0.00,,,0.00,,2013-01-15 06:52:00,
2013-01-14 23:02:00,27.0,-4.0,30.36,SW,232,0.0,5.0,25,0.00,,,0.00,,2013-01-15 07:02:00,
2013-01-14 23:12:00,27.0,-4.0,30.36,SW,232,0.0,5.0,25,0.00,,,0.00,,2013-01-15 07:12:00,
2013-01-14 23:22:00,27.0,-3.0,30.37,SW,232,0.0,3.0,26,0.00,,,0.00,,2013-01-15 07:22:00,
2013-01-14 23:32:00,26.0,-4.0,30.36,SW,232,0.0,0.0,26,0.00,,,0.00,,2013-01-15 07:32:00,
2013-01-14 23:42:00,26.0,-4.0,30.36,SW,232,0.0,0.0,26,0.00,,,0.00,,2013-01-15 07:42:00,
2013-01-14 23:52:00,25.0,-4.0,30.37,SW,232,0.0,0.0,27,0.00,,,0.00,,2013-01-15 07:52:00,